createdAt,value
2022-09-18T00:01:21.171Z,100.00
2022-09-18T00:04:01.771Z,100.00
2022-09-18T00:06:38.539Z,100.00
2022-09-18T00:09:15.286Z,100.00
2022-09-18T00:11:49.506Z,100.00
2022-09-18T00:14:33.414Z,100.00
2022-09-18T00:17:09.367Z,100.00
2022-09-18T00:19:47.610Z,100.00
2022-09-18T00:22:23.278Z,100.00
2022-09-18T00:24:56.758Z,100.00
2022-09-18T00:27:38.159Z,100.00
2022-09-18T00:30:19.590Z,100.00
2022-09-18T00:32:57.940Z,100.00
2022-09-18T00:35:29.353Z,100.00
2022-09-18T00:38:05.636Z,100.00
2022-09-18T00:40:45.228Z,100.00
2022-09-18T00:43:37.048Z,100.00
2022-09-18T00:46:33.972Z,100.00
2022-09-18T00:49:18.967Z,100.00
2022-09-18T00:51:55.768Z,100.00
2022-09-18T00:54:55.106Z,100.00
2022-09-18T00:57:41.387Z,100.00
2022-09-18T01:00:14.832Z,100.00
2022-09-18T01:02:49.725Z,100.00
2022-09-18T01:05:46.706Z,100.00
2022-09-18T01:08:43.313Z,100.00
2022-09-18T01:12:07.867Z,100.00
2022-09-18T01:15:07.568Z,100.00
2022-09-18T01:18:00.199Z,100.00
2022-09-18T01:20:49.484Z,100.00
2022-09-18T01:23:40.915Z,100.00
2022-09-18T01:26:32.324Z,100.00
2022-09-18T01:29:28.522Z,100.00
2022-09-18T01:32:04.463Z,100.00
2022-09-18T01:35:09.839Z,100.00
2022-09-18T01:38:02.466Z,100.00
2022-09-18T01:40:49.418Z,100.00
2022-09-18T01:43:32.562Z,100.00
2022-09-18T01:46:12.362Z,100.00
2022-09-18T01:48:50.928Z,100.00
2022-09-18T01:51:36.376Z,100.00
2022-09-18T01:54:24.468Z,100.00
2022-09-18T01:57:21.419Z,100.00
2022-09-18T02:00:02.833Z,100.00
2022-09-18T02:03:02.374Z,100.00
2022-09-18T02:05:56.634Z,100.00
2022-09-18T02:08:48.304Z,100.00
2022-09-18T02:11:32.384Z,100.00
2022-09-18T02:14:08.175Z,100.00
2022-09-18T02:17:15.978Z,100.00
2022-09-18T02:20:16.037Z,100.00
2022-09-18T02:22:56.960Z,100.00
2022-09-18T02:25:46.059Z,100.00
2022-09-18T02:28:23.348Z,100.00
2022-09-18T02:31:01.411Z,100.00
2022-09-18T02:33:37.063Z,100.00
2022-09-18T02:36:54.523Z,100.00
2022-09-18T02:39:54.473Z,100.00
2022-09-18T02:43:01.366Z,100.00
2022-09-18T02:45:49.487Z,100.00
2022-09-18T02:48:41.686Z,100.00
2022-09-18T02:51:21.140Z,100.00
2022-09-18T02:53:57.745Z,100.00
2022-09-18T02:56:45.571Z,100.00
2022-09-18T02:59:34.786Z,100.00
2022-09-18T03:02:02.503Z,100.00
2022-09-18T03:07:41.466Z,100.00
2022-09-18T03:10:13.988Z,100.00
2022-09-18T03:12:46.264Z,100.00
2022-09-18T03:15:16.538Z,100.00
2022-09-18T03:17:49.061Z,100.00
2022-09-18T03:20:27.356Z,100.00
2022-09-18T03:22:59.247Z,100.00
2022-09-18T03:25:28.209Z,100.00
2022-09-18T03:28:03.985Z,100.00
2022-09-18T03:30:45.011Z,100.00
2022-09-18T03:33:19.007Z,100.00
2022-09-18T03:35:57.247Z,100.00
2022-09-18T03:38:34.554Z,100.00
2022-09-18T03:41:10.302Z,100.00
2022-09-18T03:43:46.892Z,100.00
2022-09-18T03:46:25.876Z,100.00
2022-09-18T03:49:09.339Z,100.00
2022-09-18T03:51:54.530Z,100.00
2022-09-18T03:54:32.354Z,100.00
2022-09-18T03:57:27.342Z,100.00
2022-09-18T04:00:28.681Z,100.00
2022-09-18T04:03:16.164Z,100.00
2022-09-18T04:06:20.588Z,100.00
2022-09-18T04:09:24.392Z,100.00
2022-09-18T04:12:10.144Z,100.00
2022-09-18T04:14:49.164Z,100.00
2022-09-18T04:17:31.030Z,100.00
2022-09-18T04:20:09.639Z,100.00
2022-09-18T04:22:44.537Z,100.00
2022-09-18T04:25:16.538Z,100.00
2022-09-18T04:28:01.492Z,100.00
2022-09-18T04:30:37.980Z,100.00
2022-09-18T04:33:18.682Z,100.00
2022-09-18T04:35:54.281Z,100.00
2022-09-18T04:38:27.531Z,100.00
2022-09-18T04:41:00.946Z,100.00
2022-09-18T04:43:42.187Z,100.00
2022-09-18T04:46:11.089Z,100.00
2022-09-18T04:48:51.200Z,100.00
2022-09-18T04:51:37.147Z,100.00
2022-09-18T04:54:20.762Z,100.00
2022-09-18T04:56:53.916Z,100.00
2022-09-18T04:59:37.300Z,100.00
2022-09-18T05:02:08.537Z,100.00
2022-09-18T05:04:52.275Z,100.00
2022-09-18T05:07:36.106Z,100.00
2022-09-18T05:10:30.315Z,100.00
2022-09-18T05:13:06.326Z,100.00
2022-09-18T05:15:38.736Z,100.00
2022-09-18T05:18:14.880Z,100.00
2022-09-18T05:20:47.507Z,100.00
2022-09-18T05:23:26.349Z,100.00
2022-09-18T05:26:03.546Z,100.00
2022-09-18T05:28:41.061Z,100.00
2022-09-18T05:31:19.545Z,100.00
2022-09-18T05:33:47.654Z,100.00
2022-09-18T05:36:18.493Z,100.00
2022-09-18T05:38:59.302Z,100.00
2022-09-18T05:41:37.588Z,100.00
2022-09-18T05:44:15.706Z,100.00
2022-09-18T05:46:51.764Z,100.00
2022-09-18T05:49:32.927Z,100.00
2022-09-18T05:52:05.639Z,99.91
2022-09-18T05:54:41.575Z,98.76
2022-09-18T05:57:21.475Z,98.17
2022-09-18T06:00:03.341Z,95.59
2022-09-18T06:02:48.693Z,96.92
2022-09-18T06:05:27.988Z,95.74
2022-09-18T06:08:07.665Z,95.94
2022-09-18T06:10:49.322Z,95.66
2022-09-18T06:13:24.873Z,94.85
2022-09-18T06:16:08.687Z,93.15
2022-09-18T06:19:00.981Z,92.30
2022-09-18T06:21:38.713Z,92.20
2022-09-18T06:24:11.989Z,92.72
2022-09-18T06:26:50.631Z,90.44
2022-09-18T06:29:31.321Z,91.60
2022-09-18T06:32:16.346Z,89.98
2022-09-18T06:34:45.315Z,88.84
2022-09-18T06:37:25.144Z,87.81
2022-09-18T06:40:09.235Z,89.42
2022-09-18T06:43:15.967Z,86.82
2022-09-18T06:46:10.826Z,83.54
2022-09-18T06:48:48.867Z,82.95
2022-09-18T06:51:24.541Z,83.63
2022-09-18T06:54:19.651Z,84.06
2022-09-18T06:56:58.079Z,83.10
2022-09-18T06:59:41.859Z,84.71
2022-09-18T07:02:19.752Z,82.10
2022-09-18T07:04:57.271Z,82.02
2022-09-18T07:07:40.650Z,84.74
2022-09-18T07:10:22.324Z,85.95
2022-09-18T07:12:50.109Z,85.31
2022-09-18T07:15:28.123Z,85.82
2022-09-18T07:18:10.895Z,84.71
2022-09-18T07:20:46.712Z,84.84
2022-09-18T07:23:33.195Z,85.56
2022-09-18T07:26:16.119Z,84.48
2022-09-18T07:28:55.495Z,86.94
2022-09-18T07:31:44.208Z,86.64
2022-09-18T07:34:23.961Z,86.43
2022-09-18T07:36:56.224Z,87.33
2022-09-18T07:39:34.090Z,86.82
2022-09-18T07:42:22.275Z,85.94
2022-09-18T07:45:00.694Z,85.68
2022-09-18T07:47:42.818Z,82.84
2022-09-18T07:50:23.740Z,81.35
2022-09-18T07:52:54.777Z,81.51
2022-09-18T07:55:37.031Z,84.70
2022-09-18T07:58:10.713Z,83.65
2022-09-18T08:01:18.268Z,82.83
2022-09-18T08:03:58.744Z,80.78
2022-09-18T08:06:42.581Z,78.65
2022-09-18T08:09:28.447Z,80.46
2022-09-18T08:12:27.734Z,80.67
2022-09-18T08:15:31.457Z,82.65
2022-09-18T08:18:32.268Z,83.76
2022-09-18T08:21:26.942Z,85.32
2022-09-18T08:24:10.312Z,84.40
2022-09-18T08:26:43.293Z,82.03
2022-09-18T08:29:22.348Z,84.14
2022-09-18T08:35:05.116Z,83.82
2022-09-18T08:37:36.213Z,82.19
2022-09-18T08:40:34.693Z,80.93
2022-09-18T08:43:19.466Z,82.89
2022-09-18T08:46:09.811Z,82.21
2022-09-18T08:48:59.632Z,82.22
2022-09-18T08:51:44.591Z,81.60
2022-09-18T08:54:24.100Z,81.45
2022-09-18T08:57:27.994Z,80.91
2022-09-18T09:00:24.341Z,85.36
2022-09-18T09:03:35.800Z,81.21
2022-09-18T09:06:36.942Z,79.95
2022-09-18T09:09:43.546Z,80.63
2022-09-18T09:12:35.168Z,78.53
2022-09-18T09:15:26.123Z,78.73
2022-09-18T09:21:25.158Z,79.08
2022-09-18T09:24:17.334Z,77.88
2022-09-18T09:27:50.443Z,76.35
2022-09-18T09:30:46.618Z,73.90
2022-09-18T09:34:32.490Z,73.90
2022-09-18T09:37:44.225Z,75.54
2022-09-18T09:41:06.957Z,74.30
2022-09-18T09:43:54.369Z,74.87
2022-09-18T09:46:58.975Z,74.63
2022-09-18T09:50:15.340Z,76.81
2022-09-18T09:52:59.704Z,73.65
2022-09-18T09:55:47.423Z,74.45
2022-09-18T09:58:54.510Z,74.22
2022-09-18T10:02:01.324Z,74.66
2022-09-18T10:04:54.945Z,73.67
2022-09-18T10:07:55.092Z,76.30
2022-09-18T10:10:34.622Z,75.37
2022-09-18T10:13:25.732Z,73.84
2022-09-18T10:16:17.228Z,73.39
2022-09-18T10:18:59.786Z,74.34
2022-09-18T10:21:41.758Z,76.60
2022-09-18T10:24:21.837Z,75.85
2022-09-18T10:27:15.611Z,75.09
2022-09-18T10:29:46.151Z,74.34
2022-09-18T10:32:42.354Z,73.82
2022-09-18T10:35:29.306Z,75.17
2022-09-18T10:38:25.349Z,75.18
2022-09-18T10:40:54.901Z,75.04
2022-09-18T10:43:28.830Z,74.50
2022-09-18T10:46:07.343Z,74.52
2022-09-18T10:48:58.765Z,74.75
2022-09-18T10:51:34.188Z,73.25
2022-09-18T10:54:23.283Z,75.46
2022-09-18T10:57:34.636Z,75.48
2022-09-18T11:00:50.949Z,77.21
2022-09-18T11:03:42.771Z,72.81
2022-09-18T11:06:25.873Z,73.53
2022-09-18T11:09:08.501Z,73.47
2022-09-18T11:15:19.575Z,71.78
2022-09-18T11:17:58.508Z,73.08
2022-09-18T11:23:30.343Z,75.20
2022-09-18T11:26:15.827Z,75.61
2022-09-18T11:29:10.643Z,72.36
2022-09-18T11:32:28.534Z,70.72
2022-09-18T11:35:20.578Z,66.30
2022-09-18T11:38:14.906Z,65.70
2022-09-18T11:40:57.896Z,65.15
2022-09-18T11:43:44.842Z,64.64
2022-09-18T11:46:39.162Z,65.30
2022-09-18T11:49:25.701Z,65.08
2022-09-18T11:52:35.503Z,64.78
2022-09-18T11:55:35.556Z,66.00
2022-09-18T11:58:31.580Z,64.21
2022-09-18T12:01:36.871Z,63.45
2022-09-18T12:04:13.694Z,62.63
2022-09-18T12:06:53.709Z,63.61
2022-09-18T12:09:45.160Z,64.33
2022-09-18T12:12:32.818Z,66.28
2022-09-18T12:15:24.308Z,61.15
2022-09-18T12:18:03.026Z,59.74
2022-09-18T12:20:42.445Z,61.75
2022-09-18T12:23:23.203Z,60.17
2022-09-18T12:26:06.021Z,65.02
2022-09-18T12:28:51.344Z,60.86
2022-09-18T12:31:43.496Z,63.84
2022-09-18T12:34:23.116Z,60.42
2022-09-18T12:37:31.718Z,61.04
2022-09-18T12:40:22.870Z,60.53
2022-09-18T12:43:09.230Z,59.20
2022-09-18T12:46:17.725Z,64.77
2022-09-18T12:49:02.537Z,62.23
2022-09-18T12:51:42.356Z,64.31
2022-09-18T12:54:40.037Z,61.21
2022-09-18T12:57:30.759Z,66.34
2022-09-18T13:00:14.879Z,61.96
2022-09-18T13:03:14.988Z,61.69
2022-09-18T13:06:06.421Z,60.47
2022-09-18T13:09:07.219Z,60.96
2022-09-18T13:11:49.222Z,60.50
2022-09-18T13:14:38.952Z,59.36
2022-09-18T13:17:43.899Z,60.28
2022-09-18T13:20:36.547Z,58.70
2022-09-18T13:23:23.339Z,61.25
2022-09-18T13:26:07.412Z,59.77
2022-09-18T13:28:41.624Z,58.46
2022-09-18T13:31:31.016Z,57.88
2022-09-18T13:34:10.375Z,59.86
2022-09-18T13:36:46.215Z,56.87
2022-09-18T13:39:46.003Z,58.44
2022-09-18T13:42:48.813Z,59.87
2022-09-18T13:45:26.320Z,58.64
2022-09-18T13:48:06.660Z,59.59
2022-09-18T13:50:37.926Z,59.41
2022-09-18T13:53:33.556Z,59.44
2022-09-18T13:56:19.229Z,58.22
2022-09-18T13:59:04.434Z,58.68
2022-09-18T14:01:40.496Z,58.21
2022-09-18T14:04:46.929Z,60.04
2022-09-18T14:07:28.761Z,63.05
2022-09-18T14:10:20.138Z,65.68
2022-09-18T14:13:08.941Z,63.85
2022-09-18T14:15:59.557Z,61.29
2022-09-18T14:18:52.882Z,64.47
2022-09-18T14:21:28.124Z,67.78
2022-09-18T14:24:28.055Z,66.31
2022-09-18T14:27:26.844Z,68.40
2022-09-18T14:30:07.646Z,66.10
2022-09-18T14:33:05.406Z,64.60
2022-09-18T14:36:05.409Z,63.39
2022-09-18T14:38:47.557Z,64.01
2022-09-18T14:41:35.557Z,61.97
2022-09-18T14:44:26.057Z,61.62
2022-09-18T14:47:08.370Z,60.37
2022-09-18T14:49:53.021Z,58.83
2022-09-18T14:52:31.037Z,59.57
2022-09-18T14:55:19.542Z,59.75
2022-09-18T14:58:00.563Z,58.89
2022-09-18T15:00:40.651Z,58.83
2022-09-18T15:03:22.173Z,58.52
2022-09-18T15:06:19.980Z,57.20
2022-09-18T15:08:57.952Z,56.81
2022-09-18T15:12:00.982Z,57.42
2022-09-18T15:14:42.755Z,57.98
2022-09-18T15:17:42.708Z,58.07
2022-09-18T15:20:26.874Z,59.87
2022-09-18T15:23:18.605Z,60.98
2022-09-18T15:26:02.146Z,60.11
2022-09-18T15:28:46.398Z,61.75
2022-09-18T15:31:39.040Z,60.97
2022-09-18T15:34:23.941Z,60.03
2022-09-18T15:37:06.227Z,56.59
2022-09-18T15:39:42.554Z,55.91
2022-09-18T15:42:35.944Z,53.64
2022-09-18T15:45:21.233Z,50.51
2022-09-18T15:47:59.508Z,49.27
2022-09-18T15:50:51.425Z,49.11
2022-09-18T15:53:27.802Z,48.43
2022-09-18T15:56:20.053Z,51.11
2022-09-18T15:59:00.329Z,53.45
2022-09-18T16:01:46.715Z,51.25
2022-09-18T16:04:39.877Z,51.19
2022-09-18T16:07:40.243Z,54.24
2022-09-18T16:10:35.164Z,56.08
2022-09-18T16:13:27.257Z,58.55
2022-09-18T16:16:11.961Z,61.35
2022-09-18T16:19:14.373Z,61.92
2022-09-18T16:22:00.121Z,61.54
2022-09-18T16:24:40.736Z,63.49
2022-09-18T16:27:22.230Z,63.79
2022-09-18T16:29:59.211Z,65.44
2022-09-18T16:32:38.534Z,66.36
2022-09-18T16:35:16.477Z,68.44
2022-09-18T16:37:52.744Z,68.12
2022-09-18T16:40:33.798Z,68.98
2022-09-18T16:43:18.917Z,70.68
2022-09-18T16:45:54.833Z,71.35
2022-09-18T16:48:31.090Z,73.65
2022-09-18T16:51:15.290Z,75.12
2022-09-18T16:53:50.957Z,75.43
2022-09-18T16:56:29.552Z,75.27
2022-09-18T16:59:06.276Z,75.81
2022-09-18T17:02:02.456Z,76.00
2022-09-18T17:04:37.094Z,76.83
2022-09-18T17:07:17.040Z,77.12
2022-09-18T17:09:56.537Z,76.43
2022-09-18T17:12:37.266Z,76.25
2022-09-18T17:15:18.541Z,78.09
2022-09-18T17:17:56.648Z,77.76
2022-09-18T17:20:33.319Z,78.61
2022-09-18T17:23:09.040Z,78.54
2022-09-18T17:25:46.960Z,80.77
2022-09-18T17:28:21.701Z,79.97
2022-09-18T17:31:00.186Z,79.81
2022-09-18T17:33:40.994Z,80.54
2022-09-18T17:36:18.189Z,81.07
2022-09-18T17:38:46.920Z,81.52
2022-09-18T17:41:33.550Z,81.65
2022-09-18T17:44:10.390Z,81.60
2022-09-18T17:46:48.618Z,82.60
2022-09-18T17:49:22.888Z,83.31
2022-09-18T17:52:02.714Z,83.62
2022-09-18T17:54:44.827Z,83.80
2022-09-18T17:57:20.077Z,85.41
2022-09-18T17:59:55.300Z,86.22
2022-09-18T18:02:31.793Z,85.91
2022-09-18T18:05:02.993Z,86.51
2022-09-18T18:07:35.614Z,86.58
2022-09-18T18:10:16.691Z,86.88
2022-09-18T18:12:58.106Z,86.51
2022-09-18T18:15:36.476Z,88.22
2022-09-18T18:18:19.750Z,88.05
2022-09-18T18:21:00.969Z,87.50
2022-09-18T18:23:42.273Z,87.64
2022-09-18T18:26:18.846Z,88.59
2022-09-18T18:28:57.411Z,89.14
2022-09-18T18:31:47.354Z,90.42
2022-09-18T18:34:28.022Z,89.95
2022-09-18T18:37:05.485Z,89.47
2022-09-18T18:39:48.436Z,89.31
2022-09-18T18:42:28.376Z,89.26
2022-09-18T18:45:04.513Z,89.80
2022-09-18T18:47:49.960Z,91.13
2022-09-18T18:50:42.838Z,90.73
2022-09-18T18:53:17.665Z,91.15
2022-09-18T18:55:54.480Z,91.28
2022-09-18T18:58:34.975Z,90.53
2022-09-18T19:01:11.740Z,89.75
2022-09-18T19:03:55.714Z,88.58
2022-09-18T19:06:27.215Z,87.94
2022-09-18T19:09:03.502Z,88.13
2022-09-18T19:11:50.679Z,88.05
2022-09-18T19:14:40.423Z,87.28
2022-09-18T19:17:27.329Z,87.44
2022-09-18T19:20:04.105Z,87.26
2022-09-18T19:22:43.513Z,87.61
2022-09-18T19:25:20.030Z,87.81
2022-09-18T19:27:56.531Z,89.19
2022-09-18T19:30:29.615Z,88.56
2022-09-18T19:33:12.086Z,90.20
2022-09-18T19:35:53.496Z,92.18
2022-09-18T19:38:46.936Z,93.79
2022-09-18T19:42:01.423Z,96.27
2022-09-18T19:44:48.742Z,94.66
2022-09-18T19:47:28.395Z,95.26
2022-09-18T19:49:59.916Z,94.20
2022-09-18T19:52:44.450Z,95.49
2022-09-18T19:55:25.802Z,93.73
2022-09-18T19:58:04.109Z,94.14
2022-09-18T20:00:39.977Z,93.59
2022-09-18T20:03:15.510Z,93.69
2022-09-18T20:05:52.136Z,93.55
2022-09-18T20:08:25.064Z,94.35
2022-09-18T20:11:08.843Z,93.46
2022-09-18T20:13:50.537Z,93.16
2022-09-18T20:16:28.683Z,91.90
2022-09-18T20:19:07.867Z,92.61
2022-09-18T20:21:37.993Z,91.50
2022-09-18T20:24:30.419Z,91.58
2022-09-18T20:27:08.042Z,91.85
2022-09-18T20:29:43.807Z,91.85
2022-09-18T20:32:16.536Z,91.51
2022-09-18T20:34:54.983Z,93.21
2022-09-18T20:37:32.931Z,94.82
2022-09-18T20:40:09.939Z,93.41
2022-09-18T20:42:47.761Z,92.92
2022-09-18T20:45:23.237Z,92.64
2022-09-18T20:47:59.821Z,92.75
2022-09-18T20:50:35.351Z,92.35
2022-09-18T20:53:10.822Z,93.20
2022-09-18T20:55:37.811Z,93.29
2022-09-18T20:58:10.843Z,92.80
2022-09-18T21:00:53.854Z,93.32
2022-09-18T21:03:30.564Z,93.11
2022-09-18T21:06:22.412Z,94.33
2022-09-18T21:08:55.081Z,94.42
2022-09-18T21:11:36.459Z,94.40
2022-09-18T21:14:19.825Z,94.75
2022-09-18T21:16:53.284Z,95.43
2022-09-18T21:19:26.835Z,94.48
2022-09-18T21:22:02.501Z,92.18
2022-09-18T21:24:35.426Z,91.98
2022-09-18T21:27:13.712Z,93.01
2022-09-18T21:29:51.879Z,93.52
2022-09-18T21:32:24.499Z,95.28
2022-09-18T21:35:03.295Z,95.65
2022-09-18T21:37:49.543Z,93.78
2022-09-18T21:40:23.906Z,93.10
2022-09-18T21:43:05.561Z,93.06
2022-09-18T21:45:52.490Z,91.22
2022-09-18T21:48:37.450Z,92.04
2022-09-18T21:51:12.173Z,89.83
2022-09-18T21:53:53.570Z,90.87
2022-09-18T21:56:28.804Z,90.54
2022-09-18T21:59:07.417Z,91.08
2022-09-18T22:01:50.378Z,90.03
2022-09-18T22:04:35.704Z,89.06
2022-09-18T22:07:13.563Z,89.89
2022-09-18T22:09:50.859Z,89.27
2022-09-18T22:12:29.168Z,89.39
2022-09-18T22:15:01.388Z,88.67
2022-09-18T22:17:36.295Z,86.49
2022-09-18T22:20:09.097Z,87.20
2022-09-18T22:22:46.431Z,86.78
2022-09-18T22:25:19.430Z,85.89
2022-09-18T22:27:56.742Z,84.03
2022-09-18T22:30:34.429Z,86.87
2022-09-18T22:33:16.854Z,85.23
2022-09-18T22:36:04.761Z,85.23
2022-09-18T22:38:36.691Z,84.02
2022-09-18T22:41:09.838Z,85.10
2022-09-18T22:43:51.611Z,84.78
2022-09-18T22:46:25.364Z,85.94
2022-09-18T22:49:09.669Z,85.98
2022-09-18T22:51:54.706Z,83.37
2022-09-18T22:54:29.539Z,83.45
2022-09-18T22:57:16.614Z,82.59
2022-09-18T22:59:54.984Z,81.02
2022-09-18T23:02:38.809Z,82.83
2022-09-18T23:05:09.257Z,81.76
2022-09-18T23:07:46.438Z,82.90
2022-09-18T23:10:22.821Z,82.95
2022-09-18T23:13:05.383Z,83.02
2022-09-18T23:15:38.471Z,81.71
2022-09-18T23:18:15.609Z,82.37
2022-09-18T23:20:51.751Z,82.75
2022-09-18T23:23:28.833Z,82.00
2022-09-18T23:26:13.826Z,82.69
2022-09-18T23:28:47.508Z,82.98
2022-09-18T23:31:27.504Z,82.15
2022-09-18T23:34:00.702Z,82.27
2022-09-18T23:36:36.123Z,81.91
2022-09-18T23:39:11.177Z,80.93
2022-09-18T23:41:50.242Z,81.31
2022-09-18T23:44:29.484Z,80.42
2022-09-18T23:47:02.981Z,78.72
2022-09-18T23:49:35.645Z,78.77
2022-09-18T23:52:10.649Z,79.57
2022-09-18T23:54:51.181Z,78.99
2022-09-18T23:57:34.454Z,78.37
